createdAt,value
2018-08-19T00:00:17.212Z,18.97
2018-08-19T00:01:16.286Z,18.95
2018-08-19T00:02:16.556Z,18.95
2018-08-19T00:03:16.828Z,18.98
2018-08-19T00:04:17.100Z,18.94
2018-08-19T00:05:16.350Z,18.91
2018-08-19T00:06:16.614Z,18.88
2018-08-19T00:07:16.876Z,18.84
2018-08-19T00:08:17.138Z,18.84
2018-08-19T00:09:16.416Z,18.80
2018-08-19T00:10:16.697Z,18.80
2018-08-19T00:11:16.735Z,18.77
2018-08-19T00:12:17.010Z,18.76
2018-08-19T00:13:16.486Z,18.76
2018-08-19T00:14:16.749Z,18.72
2018-08-19T00:15:17.026Z,18.66
2018-08-19T00:16:16.296Z,18.59
2018-08-19T00:17:16.578Z,18.58
2018-08-19T00:18:16.841Z,18.55
2018-08-19T00:19:17.115Z,18.51
2018-08-19T00:20:16.398Z,18.52
2018-08-19T00:21:16.440Z,18.48
2018-08-19T00:22:16.700Z,18.46
2018-08-19T00:23:16.971Z,18.45
2018-08-19T00:24:16.244Z,18.45
2018-08-19T00:25:16.532Z,18.42
2018-08-19T00:26:16.805Z,18.42
2018-08-19T00:27:17.507Z,18.41
2018-08-19T00:28:16.777Z,18.38
2018-08-19T00:29:17.054Z,18.36
2018-08-19T00:30:16.334Z,18.39
2018-08-19T00:31:16.356Z,18.42
2018-08-19T00:32:16.634Z,18.39
2018-08-19T00:33:16.918Z,18.36
2018-08-19T00:34:17.191Z,18.36
2018-08-19T00:35:16.466Z,18.35
2018-08-19T00:36:16.731Z,18.35
2018-08-19T00:37:16.997Z,18.31
2018-08-19T00:38:16.264Z,18.28
2018-08-19T00:39:16.546Z,18.29
2018-08-19T00:40:16.877Z,18.28
2018-08-19T00:41:16.860Z,18.32
2018-08-19T00:42:17.146Z,18.29
2018-08-19T00:43:16.413Z,18.22
2018-08-19T00:44:16.677Z,18.19
2018-08-19T00:45:16.970Z,18.21
2018-08-19T00:46:16.241Z,18.10
2018-08-19T00:47:16.515Z,17.98
2018-08-19T00:48:16.777Z,17.90
2018-08-19T00:49:17.034Z,17.84
2018-08-19T00:50:16.317Z,17.74
2018-08-19T00:51:16.350Z,17.70
2018-08-19T00:52:16.617Z,17.57
2018-08-19T00:53:16.890Z,17.53
2018-08-19T00:54:17.181Z,17.50
2018-08-19T00:55:16.447Z,17.48
2018-08-19T00:56:16.733Z,17.45
2018-08-19T00:57:17.052Z,17.36
2018-08-19T00:58:16.325Z,17.36
2018-08-19T00:59:16.604Z,17.33
2018-08-19T01:00:16.884Z,17.32
2018-08-19T01:01:16.922Z,17.33
2018-08-19T01:02:17.193Z,17.33
2018-08-19T01:03:16.462Z,17.26
2018-08-19T01:04:16.723Z,17.24
2018-08-19T01:05:17.000Z,17.21
2018-08-19T01:06:16.264Z,17.19
2018-08-19T01:07:16.535Z,17.19
2018-08-19T01:08:16.805Z,17.19
2018-08-19T01:09:17.086Z,17.15
2018-08-19T01:10:16.374Z,17.13
2018-08-19T01:11:16.420Z,17.07
2018-08-19T01:12:16.683Z,16.98
2018-08-19T01:13:16.959Z,16.97
2018-08-19T01:14:16.224Z,16.94
2018-08-19T01:15:16.765Z,16.93
2018-08-19T01:16:17.041Z,16.88
2018-08-19T01:17:16.309Z,16.88
2018-08-19T01:18:16.581Z,16.84
2018-08-19T01:19:16.854Z,16.80
2018-08-19T01:20:17.149Z,16.80
2018-08-19T01:21:17.166Z,16.80
2018-08-19T01:22:16.441Z,16.74
2018-08-19T01:23:16.706Z,16.76
2018-08-19T01:24:16.972Z,16.74
2018-08-19T01:25:16.238Z,16.74
2018-08-19T01:26:16.503Z,16.74
2018-08-19T01:27:16.782Z,16.76
2018-08-19T01:28:17.049Z,16.74
2018-08-19T01:29:16.319Z,16.77
2018-08-19T01:30:16.603Z,16.74
2018-08-19T01:31:16.635Z,16.74
2018-08-19T01:32:16.895Z,16.77
2018-08-19T01:33:17.171Z,16.76
2018-08-19T01:34:16.437Z,16.73
2018-08-19T01:35:16.710Z,16.71
2018-08-19T01:36:16.969Z,16.70
2018-08-19T01:37:16.241Z,16.67
2018-08-19T01:38:16.511Z,16.68
2018-08-19T01:39:16.777Z,16.67
2018-08-19T01:40:17.074Z,16.70
2018-08-19T01:41:17.105Z,16.71
2018-08-19T01:42:16.374Z,16.74
2018-08-19T01:43:16.635Z,16.76
2018-08-19T01:44:16.910Z,16.74
2018-08-19T01:45:17.185Z,16.71
2018-08-19T01:46:16.473Z,16.77
2018-08-19T01:47:16.742Z,16.77
2018-08-19T01:48:17.005Z,16.84
2018-08-19T01:49:16.276Z,16.95
2018-08-19T01:50:16.562Z,16.98
2018-08-19T01:51:16.867Z,17.04
2018-08-19T01:52:17.140Z,17.01
2018-08-19T01:53:16.414Z,16.94
2018-08-19T01:54:16.694Z,16.93
2018-08-19T01:55:16.964Z,16.90
2018-08-19T01:56:16.235Z,16.90
2018-08-19T01:57:16.508Z,16.86
2018-08-19T01:58:16.774Z,16.84
2018-08-19T01:59:17.038Z,16.84
2018-08-19T02:00:16.325Z,16.83
2018-08-19T02:01:16.348Z,16.80
2018-08-19T02:02:16.626Z,16.84
2018-08-19T02:03:16.890Z,16.81
2018-08-19T02:04:17.150Z,16.80
2018-08-19T02:05:16.425Z,16.80
2018-08-19T02:06:16.689Z,16.78
2018-08-19T02:07:16.946Z,16.78
2018-08-19T02:08:16.225Z,16.86
2018-08-19T02:09:16.502Z,16.94
2018-08-19T02:10:16.781Z,16.91
2018-08-19T02:11:16.833Z,17.17
2018-08-19T02:12:17.105Z,17.45
2018-08-19T02:13:16.378Z,17.50
2018-08-19T02:14:16.667Z,17.60
2018-08-19T02:15:16.941Z,17.59
2018-08-19T02:16:16.210Z,17.38
2018-08-19T02:17:16.474Z,17.35
2018-08-19T02:18:16.744Z,17.24
2018-08-19T02:19:17.017Z,17.24
2018-08-19T02:20:16.298Z,17.22
2018-08-19T02:21:16.330Z,17.24
2018-08-19T02:22:16.605Z,17.25
2018-08-19T02:23:16.868Z,17.28
2018-08-19T02:24:17.134Z,17.22
2018-08-19T02:25:16.414Z,17.21
2018-08-19T02:26:16.690Z,17.13
2018-08-19T02:27:16.951Z,17.05
2018-08-19T02:28:16.216Z,16.90
2018-08-19T02:29:16.489Z,16.80
2018-08-19T02:30:16.763Z,16.76
2018-08-19T02:31:16.801Z,16.70
2018-08-19T02:32:17.075Z,16.66
2018-08-19T02:33:16.347Z,16.59
2018-08-19T02:34:16.620Z,16.53
2018-08-19T02:35:16.893Z,16.40
2018-08-19T02:36:17.173Z,16.33
2018-08-19T02:37:16.442Z,16.33
2018-08-19T02:38:16.714Z,16.29
2018-08-19T02:39:16.980Z,16.27
2018-08-19T02:40:16.257Z,16.21
2018-08-19T02:41:16.291Z,16.19
2018-08-19T02:42:16.566Z,16.22
2018-08-19T02:43:16.827Z,16.19
2018-08-19T02:44:17.094Z,16.19
2018-08-19T02:45:16.367Z,16.24
2018-08-19T02:46:16.642Z,16.33
2018-08-19T02:47:16.911Z,16.36
2018-08-19T02:48:17.175Z,16.36
2018-08-19T02:49:16.450Z,16.39
2018-08-19T02:50:16.731Z,16.36
2018-08-19T02:51:16.761Z,16.33
2018-08-19T02:52:17.038Z,16.31
2018-08-19T02:53:16.308Z,16.24
2018-08-19T02:54:16.581Z,16.21
2018-08-19T02:55:16.853Z,16.15
2018-08-19T02:56:17.130Z,16.15
2018-08-19T02:57:16.412Z,16.11
2018-08-19T02:58:16.694Z,16.09
2018-08-19T02:59:16.960Z,16.11
2018-08-19T03:00:16.235Z,16.07
2018-08-19T03:01:16.278Z,16.05
2018-08-19T03:02:16.553Z,16.08
2018-08-19T03:03:16.818Z,16.09
2018-08-19T03:04:17.095Z,16.09
2018-08-19T03:05:16.398Z,16.08
2018-08-19T03:06:16.666Z,16.09
2018-08-19T03:07:16.936Z,16.07
2018-08-19T03:08:16.204Z,15.98
2018-08-19T03:09:16.476Z,15.95
2018-08-19T03:10:16.752Z,15.95
2018-08-19T03:11:16.804Z,15.95
2018-08-19T03:12:17.075Z,15.92
2018-08-19T03:13:16.337Z,15.94
2018-08-19T03:14:16.678Z,15.91
2018-08-19T03:15:17.097Z,15.87
2018-08-19T03:16:16.541Z,15.90
2018-08-19T03:17:16.809Z,15.82
2018-08-19T03:18:17.075Z,15.81
2018-08-19T03:19:16.374Z,15.80
2018-08-19T03:20:16.655Z,15.76
2018-08-19T03:21:16.689Z,15.74
2018-08-19T03:22:16.958Z,15.73
2018-08-19T03:23:16.217Z,15.70
2018-08-19T03:24:16.501Z,15.71
2018-08-19T03:25:16.766Z,15.69
2018-08-19T03:26:17.025Z,15.69
2018-08-19T03:27:16.318Z,15.67
2018-08-19T03:28:16.582Z,15.66
2018-08-19T03:29:16.848Z,15.66
2018-08-19T03:30:17.147Z,15.63
2018-08-19T03:31:17.159Z,15.64
2018-08-19T03:32:16.451Z,15.62
2018-08-19T03:33:16.718Z,15.63
2018-08-19T03:34:16.989Z,15.62
2018-08-19T03:35:16.263Z,15.63
2018-08-19T03:36:16.553Z,15.62
2018-08-19T03:37:16.831Z,15.64
2018-08-19T03:38:17.135Z,15.64
2018-08-19T03:39:16.399Z,15.60
2018-08-19T03:40:16.672Z,15.60
2018-08-19T03:41:16.697Z,15.60
2018-08-19T03:42:16.970Z,15.59
2018-08-19T03:43:16.263Z,15.59
2018-08-19T03:44:16.536Z,15.59
2018-08-19T03:45:16.806Z,15.62
2018-08-19T03:46:17.095Z,15.59
2018-08-19T03:47:16.363Z,15.60
2018-08-19T03:48:16.635Z,15.66
2018-08-19T03:49:16.907Z,15.66
2018-08-19T03:50:17.183Z,15.64
2018-08-19T03:51:16.223Z,15.69
2018-08-19T03:52:16.503Z,15.70
2018-08-19T03:53:16.782Z,15.67
2018-08-19T03:54:17.050Z,15.70
2018-08-19T03:55:16.309Z,15.63
2018-08-19T03:56:16.586Z,15.62
2018-08-19T03:57:16.863Z,15.59
2018-08-19T03:58:17.146Z,15.59
2018-08-19T03:59:16.417Z,15.59
2018-08-19T04:00:16.701Z,15.57
2018-08-19T04:01:16.742Z,15.54
2018-08-19T04:02:17.015Z,15.56
2018-08-19T04:03:16.301Z,15.53
2018-08-19T04:04:16.576Z,15.53
2018-08-19T04:05:16.843Z,15.54
2018-08-19T04:06:17.105Z,15.52
2018-08-19T04:07:16.374Z,15.53
2018-08-19T04:08:16.645Z,15.52
2018-08-19T04:09:16.917Z,15.57
2018-08-19T04:10:17.204Z,15.54
2018-08-19T04:11:16.236Z,15.56
2018-08-19T04:12:16.510Z,15.52
2018-08-19T04:13:16.784Z,15.53
2018-08-19T04:14:17.053Z,15.53
2018-08-19T04:15:16.319Z,15.53
2018-08-19T04:16:16.591Z,15.53
2018-08-19T04:17:16.872Z,15.47
2018-08-19T04:18:17.196Z,15.45
2018-08-19T04:19:16.471Z,15.47
2018-08-19T04:20:16.753Z,15.46
2018-08-19T04:21:16.795Z,15.45
2018-08-19T04:22:17.069Z,15.45
2018-08-19T04:23:16.346Z,15.46
2018-08-19T04:24:16.622Z,15.45
2018-08-19T04:25:16.908Z,15.45
2018-08-19T04:26:17.187Z,15.43
2018-08-19T04:27:16.461Z,15.45
2018-08-19T04:28:16.728Z,15.47
2018-08-19T04:29:16.996Z,15.47
2018-08-19T04:30:16.296Z,15.49
2018-08-19T04:31:16.327Z,15.50
2018-08-19T04:32:16.588Z,15.50
2018-08-19T04:33:16.853Z,15.50
2018-08-19T04:34:17.120Z,15.52
2018-08-19T04:35:16.391Z,15.52
2018-08-19T04:36:16.661Z,15.57
2018-08-19T04:37:16.933Z,15.56
2018-08-19T04:38:17.210Z,15.57
2018-08-19T04:39:16.495Z,15.56
2018-08-19T04:40:16.802Z,15.59
2018-08-19T04:41:16.824Z,15.62
2018-08-19T04:42:17.132Z,15.60
2018-08-19T04:43:16.632Z,15.63
2018-08-19T04:44:16.903Z,15.62
2018-08-19T04:45:17.170Z,15.62
2018-08-19T04:46:16.435Z,15.66
2018-08-19T04:47:16.701Z,15.67
2018-08-19T04:48:16.966Z,15.66
2018-08-19T04:49:16.237Z,15.67
2018-08-19T04:50:16.519Z,15.70
2018-08-19T04:51:16.578Z,15.71
2018-08-19T04:52:16.852Z,15.70
2018-08-19T04:53:17.125Z,15.71
2018-08-19T04:54:16.404Z,15.74
2018-08-19T04:55:16.673Z,15.73
2018-08-19T04:56:16.955Z,15.77
2018-08-19T04:57:16.230Z,15.78
2018-08-19T04:58:16.516Z,15.80
2018-08-19T04:59:16.794Z,15.82
2018-08-19T05:00:17.073Z,15.85
2018-08-19T05:01:17.120Z,15.90
2018-08-19T05:02:16.469Z,15.92
2018-08-19T05:03:16.986Z,15.92
2018-08-19T05:04:16.264Z,15.90
2018-08-19T05:05:16.538Z,15.91
2018-08-19T05:06:16.813Z,15.97
2018-08-19T05:07:17.085Z,16.04
2018-08-19T05:08:16.570Z,16.05
2018-08-19T05:09:16.254Z,16.11
2018-08-19T05:10:16.545Z,16.15
2018-08-19T05:11:16.565Z,16.18
2018-08-19T05:12:16.837Z,16.19
2018-08-19T05:13:17.100Z,16.22
2018-08-19T05:14:16.378Z,16.27
2018-08-19T05:15:16.658Z,16.29
2018-08-19T05:16:16.925Z,16.31
2018-08-19T05:17:17.191Z,16.40
2018-08-19T05:18:16.469Z,16.42
2018-08-19T05:19:16.735Z,16.43
2018-08-19T05:20:17.025Z,16.47
2018-08-19T05:21:17.038Z,16.52
2018-08-19T05:22:16.322Z,16.52
2018-08-19T05:23:16.633Z,16.63
2018-08-19T05:24:16.905Z,16.63
2018-08-19T05:25:17.192Z,16.68
2018-08-19T05:26:16.463Z,16.76
2018-08-19T05:27:16.729Z,16.83
2018-08-19T05:28:17.079Z,16.95
2018-08-19T05:29:16.418Z,16.95
2018-08-19T05:30:16.696Z,17.04
2018-08-19T05:31:16.757Z,17.05
2018-08-19T05:32:17.028Z,17.08
2018-08-19T05:33:16.302Z,17.11
2018-08-19T05:34:16.584Z,17.17
2018-08-19T05:35:16.880Z,17.22
2018-08-19T05:36:17.227Z,17.28
2018-08-19T05:37:16.499Z,17.31
2018-08-19T05:38:16.821Z,17.32
2018-08-19T05:39:17.219Z,17.32
2018-08-19T05:40:16.500Z,17.42
2018-08-19T05:41:16.544Z,17.46
2018-08-19T05:42:16.819Z,17.46
2018-08-19T05:43:17.097Z,17.46
2018-08-19T05:44:16.363Z,17.42
2018-08-19T05:45:16.747Z,17.43
2018-08-19T05:46:17.022Z,17.52
2018-08-19T05:47:16.411Z,17.57
2018-08-19T05:48:16.906Z,17.62
2018-08-19T05:49:17.177Z,17.65
2018-08-19T05:50:16.452Z,17.68
2018-08-19T05:51:16.493Z,17.66
2018-08-19T05:52:16.771Z,17.76
2018-08-19T05:53:17.049Z,17.76
2018-08-19T05:54:16.331Z,17.77
2018-08-19T05:55:16.600Z,17.81
2018-08-19T05:56:16.866Z,17.89
2018-08-19T05:57:17.135Z,17.91
2018-08-19T05:58:16.402Z,17.98
2018-08-19T05:59:16.668Z,18.00
2018-08-19T06:00:16.945Z,18.07
2018-08-19T06:01:17.086Z,18.04
2018-08-19T06:02:16.440Z,18.10
2018-08-19T06:03:16.704Z,18.17
2018-08-19T06:04:17.099Z,18.19
2018-08-19T06:05:16.584Z,18.27
2018-08-19T06:06:16.859Z,18.32
2018-08-19T06:07:17.132Z,18.35
2018-08-19T06:08:16.408Z,18.41
2018-08-19T06:09:16.675Z,18.46
2018-08-19T06:10:16.955Z,18.49
2018-08-19T06:11:17.002Z,18.51
2018-08-19T06:12:16.265Z,18.54
2018-08-19T06:13:16.544Z,18.58
2018-08-19T06:14:16.859Z,18.63
2018-08-19T06:15:17.410Z,18.59
2018-08-19T06:16:16.680Z,18.69
2018-08-19T06:17:16.954Z,18.67
2018-08-19T06:18:16.225Z,18.70
2018-08-19T06:19:16.506Z,18.75
2018-08-19T06:20:16.785Z,18.86
2018-08-19T06:21:16.830Z,18.90
2018-08-19T06:22:17.098Z,18.93
2018-08-19T06:23:16.372Z,18.95
2018-08-19T06:24:16.635Z,18.97
2018-08-19T06:25:16.901Z,19.00
2018-08-19T06:26:17.189Z,19.05
2018-08-19T06:27:16.459Z,19.04
2018-08-19T06:28:16.728Z,19.04
2018-08-19T06:29:16.998Z,19.05
2018-08-19T06:30:16.273Z,19.08
2018-08-19T06:31:16.322Z,19.20
2018-08-19T06:32:16.598Z,19.20
2018-08-19T06:33:16.859Z,19.24
2018-08-19T06:34:17.127Z,19.34
2018-08-19T06:35:16.403Z,19.37
2018-08-19T06:36:16.676Z,19.39
2018-08-19T06:37:16.942Z,19.49
2018-08-19T06:38:16.210Z,19.46
2018-08-19T06:39:16.483Z,19.48
2018-08-19T06:40:16.758Z,19.56
2018-08-19T06:41:16.826Z,19.58
2018-08-19T06:42:17.093Z,19.59
2018-08-19T06:43:16.457Z,19.60
2018-08-19T06:44:16.974Z,19.69
2018-08-19T06:45:16.254Z,19.72
2018-08-19T06:46:16.518Z,19.72
2018-08-19T06:47:16.780Z,19.79
2018-08-19T06:48:17.043Z,19.81
2018-08-19T06:49:16.308Z,19.81
2018-08-19T06:50:16.601Z,19.84
2018-08-19T06:51:16.712Z,19.90
2018-08-19T06:52:16.266Z,19.96
2018-08-19T06:53:16.751Z,20.06
2018-08-19T06:54:17.028Z,20.04
2018-08-19T06:55:16.305Z,20.00
2018-08-19T06:56:16.575Z,20.08
2018-08-19T06:57:16.844Z,20.14
2018-08-19T06:58:17.386Z,20.08
2018-08-19T06:59:16.664Z,20.18
2018-08-19T07:00:17.006Z,20.23
2018-08-19T07:01:17.104Z,20.29
2018-08-19T07:02:16.374Z,20.31
2018-08-19T07:03:16.675Z,20.46
2018-08-19T07:04:17.004Z,20.51
2018-08-19T07:05:16.285Z,20.52
2018-08-19T07:06:16.557Z,20.55
2018-08-19T07:07:16.834Z,20.56
2018-08-19T07:08:17.389Z,20.63
2018-08-19T07:09:16.664Z,20.60
2018-08-19T07:10:16.943Z,20.68
2018-08-19T07:11:17.008Z,20.82
2018-08-19T07:12:16.276Z,20.82
2018-08-19T07:13:16.542Z,20.86
2018-08-19T07:14:17.104Z,20.84
2018-08-19T07:15:16.383Z,20.87
2018-08-19T07:16:16.655Z,20.86
2018-08-19T07:17:16.919Z,20.92
2018-08-19T07:18:17.183Z,20.94
2018-08-19T07:19:16.454Z,21.11
2018-08-19T07:20:16.736Z,21.15
2018-08-19T07:21:16.761Z,21.06
2018-08-19T07:22:17.031Z,21.10
2018-08-19T07:23:16.304Z,21.11
2018-08-19T07:24:16.576Z,21.04
2018-08-19T07:25:16.858Z,21.09
2018-08-19T07:26:17.125Z,21.27
2018-08-19T07:27:16.394Z,21.31
2018-08-19T07:28:16.658Z,21.34
2018-08-19T07:29:16.930Z,21.06
2018-08-19T07:30:17.204Z,21.09
2018-08-19T07:31:16.255Z,21.25
2018-08-19T07:32:16.520Z,21.52
2018-08-19T07:33:16.786Z,21.70
2018-08-19T07:34:17.056Z,21.75
2018-08-19T07:35:16.329Z,21.83
2018-08-19T07:36:16.602Z,21.83
2018-08-19T07:37:16.934Z,21.61
2018-08-19T07:38:16.484Z,21.76
2018-08-19T07:39:16.747Z,21.82
2018-08-19T07:40:17.013Z,21.91
2018-08-19T07:41:17.042Z,21.79
2018-08-19T07:42:16.310Z,21.73
2018-08-19T07:43:16.573Z,21.82
2018-08-19T07:44:16.861Z,22.02
2018-08-19T07:45:17.139Z,21.99
2018-08-19T07:46:16.403Z,21.99
2018-08-19T07:47:16.670Z,21.99
2018-08-19T07:48:16.946Z,22.03
2018-08-19T07:49:16.214Z,22.10
2018-08-19T07:50:16.519Z,22.23
2018-08-19T07:51:16.572Z,22.30
2018-08-19T07:52:16.881Z,22.17
2018-08-19T07:53:17.151Z,22.27
2018-08-19T07:54:16.429Z,22.50
2018-08-19T07:55:16.689Z,22.31
2018-08-19T07:56:16.959Z,22.30
2018-08-19T07:57:16.229Z,22.27
2018-08-19T07:58:16.508Z,22.26
2018-08-19T07:59:16.785Z,22.41
2018-08-19T08:00:17.045Z,22.35
2018-08-19T08:01:17.149Z,22.38
2018-08-19T08:02:16.501Z,22.54
2018-08-19T08:03:16.777Z,22.55
2018-08-19T08:04:17.056Z,22.68
2018-08-19T08:05:16.327Z,22.92
2018-08-19T08:06:16.588Z,22.82
2018-08-19T08:07:16.857Z,22.70
2018-08-19T08:08:17.136Z,22.83
2018-08-19T08:09:16.398Z,22.83
2018-08-19T08:10:16.669Z,22.79
2018-08-19T08:11:16.710Z,22.70
2018-08-19T08:12:16.976Z,22.71
2018-08-19T08:13:16.239Z,22.93
2018-08-19T08:14:16.513Z,23.05
2018-08-19T08:15:16.784Z,23.06
2018-08-19T08:16:17.056Z,23.13
2018-08-19T08:17:16.341Z,23.22
2018-08-19T08:18:16.606Z,23.29
2018-08-19T08:19:16.890Z,23.23
2018-08-19T08:20:17.157Z,23.15
2018-08-19T08:21:16.281Z,23.20
2018-08-19T08:22:16.770Z,23.44
2018-08-19T08:23:17.041Z,23.51
2018-08-19T08:24:16.321Z,23.51
2018-08-19T08:25:16.625Z,23.44
2018-08-19T08:26:16.885Z,23.57
2018-08-19T08:27:17.154Z,23.57
2018-08-19T08:28:16.420Z,23.40
2018-08-19T08:29:16.910Z,23.37
2018-08-19T08:30:16.390Z,23.61
2018-08-19T08:31:16.456Z,23.64
2018-08-19T08:32:16.740Z,23.67
2018-08-19T08:33:17.014Z,23.81
2018-08-19T08:34:16.318Z,23.80
2018-08-19T08:35:16.706Z,23.84
2018-08-19T08:36:16.981Z,23.91
2018-08-19T08:37:16.259Z,23.96
2018-08-19T08:38:16.535Z,24.09
2018-08-19T08:39:16.812Z,24.06
2018-08-19T08:40:17.094Z,24.02
2018-08-19T08:41:17.136Z,24.13
2018-08-19T08:42:16.400Z,24.01
2018-08-19T08:43:16.669Z,24.06
2018-08-19T08:44:16.932Z,24.09
2018-08-19T08:45:16.480Z,24.17
2018-08-19T08:46:16.754Z,24.38
2018-08-19T08:47:17.015Z,24.43
2018-08-19T08:48:16.300Z,24.43
2018-08-19T08:49:16.623Z,24.50
2018-08-19T08:50:16.909Z,24.64
2018-08-19T08:51:16.938Z,24.68
2018-08-19T08:52:17.198Z,24.64
2018-08-19T08:53:16.524Z,24.60
2018-08-19T08:54:16.906Z,24.67
2018-08-19T08:55:17.193Z,24.63
2018-08-19T08:56:16.495Z,24.78
2018-08-19T08:57:16.794Z,24.81
2018-08-19T08:58:17.056Z,24.89
2018-08-19T08:59:16.319Z,25.05
2018-08-19T09:00:16.594Z,25.01
2018-08-19T09:01:16.645Z,25.12
2018-08-19T09:02:16.915Z,25.28
2018-08-19T09:03:17.265Z,25.21
2018-08-19T09:04:16.760Z,25.18
2018-08-19T09:05:17.041Z,25.18
2018-08-19T09:06:16.321Z,25.11
2018-08-19T09:07:16.598Z,25.12
2018-08-19T09:08:16.868Z,25.14
2018-08-19T09:09:17.133Z,25.36
2018-08-19T09:10:16.416Z,25.39
2018-08-19T09:11:16.467Z,25.37
2018-08-19T09:12:16.744Z,25.35
2018-08-19T09:13:17.014Z,25.25
2018-08-19T09:14:16.285Z,25.26
2018-08-19T09:15:16.561Z,25.57
2018-08-19T09:16:16.846Z,25.59
2018-08-19T09:17:17.123Z,25.70
2018-08-19T09:18:16.388Z,25.93
2018-08-19T09:19:16.711Z,25.90
2018-08-19T09:20:17.003Z,25.84
2018-08-19T09:21:17.044Z,26.05
2018-08-19T09:22:16.312Z,25.88
2018-08-19T09:23:16.776Z,25.90
2018-08-19T09:24:16.365Z,25.97
2018-08-19T09:25:16.635Z,25.90
2018-08-19T09:26:16.904Z,25.76
2018-08-19T09:27:17.193Z,26.17
2018-08-19T09:28:16.463Z,26.42
2018-08-19T09:29:16.734Z,26.25
2018-08-19T09:30:17.016Z,26.07
2018-08-19T09:31:17.059Z,26.02
2018-08-19T09:32:16.322Z,26.11
2018-08-19T09:33:16.584Z,26.35
2018-08-19T09:34:16.861Z,26.15
2018-08-19T09:35:17.127Z,26.25
2018-08-19T09:36:16.392Z,26.27
2018-08-19T09:37:16.664Z,26.17
2018-08-19T09:38:16.957Z,26.11
2018-08-19T09:39:16.240Z,26.17
2018-08-19T09:40:16.517Z,26.09
2018-08-19T09:41:16.557Z,26.18
2018-08-19T09:42:16.833Z,26.15
2018-08-19T09:43:17.110Z,26.09
2018-08-19T09:44:16.379Z,26.45
2018-08-19T09:45:16.674Z,26.58
2018-08-19T09:46:16.943Z,26.38
2018-08-19T09:47:16.205Z,26.29
2018-08-19T09:48:16.473Z,26.29
2018-08-19T09:49:16.744Z,26.28
2018-08-19T09:50:17.036Z,26.29
2018-08-19T09:51:17.057Z,26.11
2018-08-19T09:52:16.335Z,26.20
2018-08-19T09:53:16.603Z,26.29
2018-08-19T09:54:16.924Z,26.45
2018-08-19T09:55:16.437Z,26.46
2018-08-19T09:56:16.714Z,26.48
2018-08-19T09:57:16.991Z,26.63
2018-08-19T09:58:16.257Z,26.55
2018-08-19T09:59:16.518Z,26.96
2018-08-19T10:00:16.793Z,26.93
2018-08-19T10:01:16.844Z,26.86
2018-08-19T10:02:17.118Z,26.83
2018-08-19T10:03:16.388Z,26.87
2018-08-19T10:04:16.671Z,26.87
2018-08-19T10:05:16.934Z,27.13
2018-08-19T10:06:17.202Z,27.13
2018-08-19T10:07:16.488Z,26.91
2018-08-19T10:08:16.798Z,27.11
2018-08-19T10:09:17.075Z,27.10
2018-08-19T10:10:16.355Z,27.00
2018-08-19T10:11:16.416Z,26.94
2018-08-19T10:12:16.691Z,26.85
2018-08-19T10:13:16.954Z,26.93
2018-08-19T10:14:16.229Z,27.41
2018-08-19T10:15:16.594Z,27.17
2018-08-19T10:16:16.867Z,26.83
2018-08-19T10:17:17.140Z,26.96
2018-08-19T10:18:16.406Z,26.85
2018-08-19T10:19:16.675Z,26.80
2018-08-19T10:20:16.943Z,26.93
2018-08-19T10:21:16.980Z,27.10
2018-08-19T10:22:16.242Z,27.03
2018-08-19T10:23:16.515Z,27.11
2018-08-19T10:24:16.787Z,27.21
2018-08-19T10:25:17.054Z,27.07
2018-08-19T10:26:16.320Z,27.40
2018-08-19T10:27:16.590Z,27.56
2018-08-19T10:28:16.859Z,27.75
2018-08-19T10:29:17.149Z,27.55
2018-08-19T10:30:16.428Z,27.44
2018-08-19T10:31:16.499Z,27.45
2018-08-19T10:32:16.809Z,27.61
2018-08-19T10:33:17.073Z,27.61
2018-08-19T10:34:16.337Z,27.56
2018-08-19T10:35:16.618Z,27.70
2018-08-19T10:36:16.894Z,27.65
2018-08-19T10:37:17.150Z,27.20
2018-08-19T10:38:16.412Z,27.20
2018-08-19T10:39:16.786Z,27.56
2018-08-19T10:40:16.285Z,27.31
2018-08-19T10:41:16.324Z,27.42
2018-08-19T10:42:16.591Z,27.96
2018-08-19T10:43:16.854Z,27.83
2018-08-19T10:44:17.400Z,27.58
2018-08-19T10:45:16.676Z,27.29
2018-08-19T10:46:16.995Z,27.53
2018-08-19T10:47:16.409Z,27.48
2018-08-19T10:48:16.668Z,27.32
2018-08-19T10:49:16.943Z,27.51
2018-08-19T10:50:16.222Z,27.40
2018-08-19T10:51:16.260Z,27.40
2018-08-19T10:52:16.528Z,27.22
2018-08-19T10:53:16.799Z,27.29
2018-08-19T10:54:17.114Z,27.41
2018-08-19T10:55:16.380Z,27.56
2018-08-19T10:56:16.642Z,27.46
2018-08-19T10:57:16.913Z,27.48
2018-08-19T10:58:17.217Z,27.55
2018-08-19T10:59:16.517Z,27.52
2018-08-19T11:00:16.809Z,27.42
2018-08-19T11:01:16.854Z,27.80
2018-08-19T11:02:17.117Z,27.86
2018-08-19T11:03:16.385Z,28.26
2018-08-19T11:04:16.667Z,28.26
2018-08-19T11:05:16.958Z,27.99
2018-08-19T11:06:16.230Z,27.62
2018-08-19T11:07:16.495Z,27.79
2018-08-19T11:08:16.761Z,27.84
2018-08-19T11:09:17.046Z,27.73
2018-08-19T11:10:16.326Z,27.86
2018-08-19T11:11:16.380Z,27.82
2018-08-19T11:12:16.649Z,27.63
2018-08-19T11:13:16.929Z,27.93
2018-08-19T11:14:16.251Z,27.93
2018-08-19T11:15:16.518Z,27.94
2018-08-19T11:16:16.780Z,27.80
2018-08-19T11:17:17.054Z,27.70
2018-08-19T11:18:16.331Z,27.75
2018-08-19T11:19:16.594Z,27.70
2018-08-19T11:20:16.863Z,28.23
2018-08-19T11:21:16.934Z,28.31
2018-08-19T11:22:16.210Z,27.84
2018-08-19T11:23:16.475Z,27.70
2018-08-19T11:24:16.736Z,28.07
2018-08-19T11:25:17.005Z,28.11
2018-08-19T11:26:16.273Z,27.90
2018-08-19T11:27:16.560Z,28.30
2018-08-19T11:28:16.833Z,28.30
2018-08-19T11:29:17.103Z,28.21
2018-08-19T11:30:16.382Z,28.00
2018-08-19T11:31:16.466Z,27.87
2018-08-19T11:32:16.819Z,28.00
2018-08-19T11:33:17.085Z,28.24
2018-08-19T11:34:16.357Z,28.31
2018-08-19T11:35:16.630Z,28.52
2018-08-19T11:36:16.900Z,28.39
2018-08-19T11:37:17.182Z,27.99
2018-08-19T11:38:16.452Z,28.00
2018-08-19T11:39:16.732Z,28.14
2018-08-19T11:40:17.018Z,28.16
2018-08-19T11:41:17.041Z,28.51
2018-08-19T11:42:16.321Z,28.44
2018-08-19T11:43:16.642Z,28.37
2018-08-19T11:44:16.992Z,28.37
2018-08-19T11:45:16.277Z,27.94
2018-08-19T11:46:16.544Z,28.06
2018-08-19T11:47:16.817Z,28.28
2018-08-19T11:48:17.088Z,28.55
2018-08-19T11:49:16.371Z,28.42
2018-08-19T11:50:16.644Z,28.24
2018-08-19T11:51:16.694Z,28.23
2018-08-19T11:52:17.016Z,28.52
2018-08-19T11:53:16.299Z,28.49
2018-08-19T11:54:16.566Z,28.65
2018-08-19T11:55:16.828Z,28.75
2018-08-19T11:56:17.140Z,28.81
2018-08-19T11:57:16.402Z,28.99
2018-08-19T11:58:16.681Z,28.97
2018-08-19T11:59:16.949Z,29.07
2018-08-19T12:00:16.226Z,29.40
2018-08-19T12:01:16.273Z,29.40
2018-08-19T12:02:16.549Z,29.23
2018-08-19T12:03:16.837Z,29.33
2018-08-19T12:04:17.092Z,28.93
2018-08-19T12:05:16.363Z,28.96
2018-08-19T12:06:16.631Z,28.93
2018-08-19T12:07:16.910Z,28.96
2018-08-19T12:08:17.174Z,29.07
2018-08-19T12:09:16.449Z,29.20
2018-08-19T12:10:16.739Z,29.20
2018-08-19T12:11:16.781Z,28.75
2018-08-19T12:12:17.049Z,28.54
2018-08-19T12:13:16.315Z,28.55
2018-08-19T12:14:16.591Z,28.64
2018-08-19T12:15:16.865Z,28.94
2018-08-19T12:16:17.149Z,29.07
2018-08-19T12:17:16.415Z,28.90
2018-08-19T12:18:16.690Z,28.99
2018-08-19T12:19:16.968Z,28.72
2018-08-19T12:20:16.253Z,28.41
2018-08-19T12:21:16.303Z,28.68
2018-08-19T12:22:16.567Z,28.85
2018-08-19T12:23:16.828Z,28.89
2018-08-19T12:24:17.089Z,28.83
2018-08-19T12:25:16.353Z,28.83
2018-08-19T12:26:16.630Z,28.78
2018-08-19T12:27:16.949Z,28.86
2018-08-19T12:28:16.317Z,28.86
2018-08-19T12:29:16.594Z,29.16
2018-08-19T12:30:16.886Z,29.17
2018-08-19T12:31:16.933Z,29.41
2018-08-19T12:32:17.207Z,29.34
2018-08-19T12:33:16.472Z,29.57
2018-08-19T12:34:16.732Z,29.34
2018-08-19T12:35:16.988Z,29.47
2018-08-19T12:36:16.265Z,29.58
2018-08-19T12:37:16.756Z,29.52
2018-08-19T12:38:16.369Z,29.41
2018-08-19T12:39:16.633Z,29.27
2018-08-19T12:40:16.921Z,29.67
2018-08-19T12:41:16.966Z,29.81
2018-08-19T12:42:16.236Z,29.73
2018-08-19T12:43:16.501Z,29.92
2018-08-19T12:44:16.766Z,29.98
2018-08-19T12:45:17.023Z,29.78
2018-08-19T12:46:16.291Z,29.91
2018-08-19T12:47:16.561Z,29.78
2018-08-19T12:48:16.823Z,29.64
2018-08-19T12:49:17.095Z,29.61
2018-08-19T12:50:16.522Z,29.31
2018-08-19T12:51:16.461Z,29.31
2018-08-19T12:52:16.790Z,29.31